sensor_id;sensor_type;location;lat;lon;timestamp;temperature;humidity
60909;DHT22;46780;48.128;-1.704;2022-12-20T00:01:59;12.40;99.90
60909;DHT22;46780;48.128;-1.704;2022-12-20T00:04:26;12.40;99.90
60909;DHT22;46780;48.128;-1.704;2022-12-20T00:06:52;12.30;99.90
60909;DHT22;46780;48.128;-1.704;2022-12-20T00:09:20;12.30;99.90
60909;DHT22;46780;48.128;-1.704;2022-12-20T00:11:47;12.30;99.90
60909;DHT22;46780;48.128;-1.704;2022-12-20T00:14:13;12.30;99.90
60909;DHT22;46780;48.128;-1.704;2022-12-20T00:16:40;12.20;99.90
60909;DHT22;46780;48.128;-1.704;2022-12-20T00:19:08;12.30;99.90
60909;DHT22;46780;48.128;-1.704;2022-12-20T00:21:34;12.30;99.90
60909;DHT22;46780;48.128;-1.704;2022-12-20T00:24:02;12.30;99.90
60909;DHT22;46780;48.128;-1.704;2022-12-20T00:26:31;12.30;99.90
60909;DHT22;46780;48.128;-1.704;2022-12-20T00:28:59;12.30;99.90
60909;DHT22;46780;48.128;-1.704;2022-12-20T00:31:28;12.20;99.90
60909;DHT22;46780;48.128;-1.704;2022-12-20T00:33:55;12.30;99.90
60909;DHT22;46780;48.128;-1.704;2022-12-20T00:36:24;12.30;99.90
60909;DHT22;46780;48.128;-1.704;2022-12-20T00:38:52;12.30;99.90
60909;DHT22;46780;48.128;-1.704;2022-12-20T00:41:21;12.30;99.90
60909;DHT22;46780;48.128;-1.704;2022-12-20T00:43:49;12.30;99.90
60909;DHT22;46780;48.128;-1.704;2022-12-20T00:46:17;12.30;99.90
60909;DHT22;46780;48.128;-1.704;2022-12-20T00:48:43;12.30;99.90
60909;DHT22;46780;48.128;-1.704;2022-12-20T00:51:11;12.30;99.90
60909;DHT22;46780;48.128;-1.704;2022-12-20T00:53:39;12.30;99.90
60909;DHT22;46780;48.128;-1.704;2022-12-20T00:56:07;12.30;99.90
60909;DHT22;46780;48.128;-1.704;2022-12-20T00:58:34;12.30;99.90
60909;DHT22;46780;48.128;-1.704;2022-12-20T01:01:03;12.40;99.90
60909;DHT22;46780;48.128;-1.704;2022-12-20T01:03:30;12.40;99.90
60909;DHT22;46780;48.128;-1.704;2022-12-20T01:05:58;12.40;99.90
60909;DHT22;46780;48.128;-1.704;2022-12-20T01:08:26;12.50;99.90
60909;DHT22;46780;48.128;-1.704;2022-12-20T01:11:00;12.40;99.90
60909;DHT22;46780;48.128;-1.704;2022-12-20T01:13:27;12.50;99.90
60909;DHT22;46780;48.128;-1.704;2022-12-20T01:15:53;12.50;99.90
60909;DHT22;46780;48.128;-1.704;2022-12-20T01:18:21;12.50;99.90
60909;DHT22;46780;48.128;-1.704;2022-12-20T01:20:48;12.60;99.90
60909;DHT22;46780;48.128;-1.704;2022-12-20T01:23:14;12.60;99.90
60909;DHT22;46780;48.128;-1.704;2022-12-20T01:25:41;12.70;99.90
60909;DHT22;46780;48.128;-1.704;2022-12-20T01:28:07;12.70;99.90
60909;DHT22;46780;48.128;-1.704;2022-12-20T01:30:34;12.70;99.90
60909;DHT22;46780;48.128;-1.704;2022-12-20T01:33:00;12.70;99.90
60909;DHT22;46780;48.128;-1.704;2022-12-20T01:35:28;12.80;99.90
60909;DHT22;46780;48.128;-1.704;2022-12-20T01:37:55;12.90;99.90
60909;DHT22;46780;48.128;-1.704;2022-12-20T01:40:21;12.80;99.90
60909;DHT22;46780;48.128;-1.704;2022-12-20T01:42:48;12.90;99.90
60909;DHT22;46780;48.128;-1.704;2022-12-20T01:45:22;12.90;99.90
60909;DHT22;46780;48.128;-1.704;2022-12-20T01:47:50;12.90;99.90
60909;DHT22;46780;48.128;-1.704;2022-12-20T01:50:17;12.90;99.90
60909;DHT22;46780;48.128;-1.704;2022-12-20T01:52:45;13.00;99.90
60909;DHT22;46780;48.128;-1.704;2022-12-20T01:55:16;13.00;99.90
60909;DHT22;46780;48.128;-1.704;2022-12-20T01:57:46;12.90;99.90
60909;DHT22;46780;48.128;-1.704;2022-12-20T02:00:14;13.00;99.90
60909;DHT22;46780;48.128;-1.704;2022-12-20T02:02:41;13.00;99.90
60909;DHT22;46780;48.128;-1.704;2022-12-20T02:05:09;13.00;99.90
60909;DHT22;46780;48.128;-1.704;2022-12-20T02:07:36;13.10;99.90
60909;DHT22;46780;48.128;-1.704;2022-12-20T02:10:07;13.00;99.90
60909;DHT22;46780;48.128;-1.704;2022-12-20T02:12:39;13.00;99.90
60909;DHT22;46780;48.128;-1.704;2022-12-20T02:15:25;13.10;99.90
60909;DHT22;46780;48.128;-1.704;2022-12-20T02:18:05;13.10;99.90
60909;DHT22;46780;48.128;-1.704;2022-12-20T02:20:57;13.10;99.90
60909;DHT22;46780;48.128;-1.704;2022-12-20T02:26:36;13.10;99.90
60909;DHT22;46780;48.128;-1.704;2022-12-20T02:29:20;13.10;99.90
60909;DHT22;46780;48.128;-1.704;2022-12-20T02:31:56;13.00;99.90
60909;DHT22;46780;48.128;-1.704;2022-12-20T02:34:27;13.00;99.90
60909;DHT22;46780;48.128;-1.704;2022-12-20T02:36:55;13.00;99.90
60909;DHT22;46780;48.128;-1.704;2022-12-20T02:39:22;12.90;99.90
60909;DHT22;46780;48.128;-1.704;2022-12-20T02:41:53;12.90;99.90
60909;DHT22;46780;48.128;-1.704;2022-12-20T02:44:24;13.00;99.90
60909;DHT22;46780;48.128;-1.704;2022-12-20T02:46:55;13.00;99.90
60909;DHT22;46780;48.128;-1.704;2022-12-20T02:49:29;13.00;99.90
60909;DHT22;46780;48.128;-1.704;2022-12-20T02:51:56;13.10;99.90
60909;DHT22;46780;48.128;-1.704;2022-12-20T02:54:25;13.10;99.90
60909;DHT22;46780;48.128;-1.704;2022-12-20T02:56:55;13.10;99.90
60909;DHT22;46780;48.128;-1.704;2022-12-20T02:59:24;13.10;99.90
60909;DHT22;46780;48.128;-1.704;2022-12-20T03:01:53;13.10;99.90
60909;DHT22;46780;48.128;-1.704;2022-12-20T03:04:22;13.10;99.90
60909;DHT22;46780;48.128;-1.704;2022-12-20T03:06:57;13.20;99.90
60909;DHT22;46780;48.128;-1.704;2022-12-20T03:09:24;13.20;99.90
60909;DHT22;46780;48.128;-1.704;2022-12-20T03:11:51;13.20;99.90
60909;DHT22;46780;48.128;-1.704;2022-12-20T03:14:18;13.20;99.90
60909;DHT22;46780;48.128;-1.704;2022-12-20T03:16:44;13.20;99.90
60909;DHT22;46780;48.128;-1.704;2022-12-20T03:19:12;13.20;99.90
60909;DHT22;46780;48.128;-1.704;2022-12-20T03:21:39;13.20;99.90
60909;DHT22;46780;48.128;-1.704;2022-12-20T03:24:06;13.30;99.90
60909;DHT22;46780;48.128;-1.704;2022-12-20T03:26:32;13.30;99.90
60909;DHT22;46780;48.128;-1.704;2022-12-20T03:28:59;13.30;99.90
60909;DHT22;46780;48.128;-1.704;2022-12-20T03:31:25;13.40;99.90
60909;DHT22;46780;48.128;-1.704;2022-12-20T03:33:52;13.40;99.90
60909;DHT22;46780;48.128;-1.704;2022-12-20T03:36:20;13.40;99.90
60909;DHT22;46780;48.128;-1.704;2022-12-20T03:38:46;13.40;99.90
60909;DHT22;46780;48.128;-1.704;2022-12-20T03:41:13;13.50;99.90
60909;DHT22;46780;48.128;-1.704;2022-12-20T03:43:39;13.50;99.90
60909;DHT22;46780;48.128;-1.704;2022-12-20T03:46:06;13.50;99.90
60909;DHT22;46780;48.128;-1.704;2022-12-20T03:48:32;13.60;99.90
60909;DHT22;46780;48.128;-1.704;2022-12-20T03:50:59;13.60;99.90
60909;DHT22;46780;48.128;-1.704;2022-12-20T03:53:27;13.60;99.90
60909;DHT22;46780;48.128;-1.704;2022-12-20T03:55:53;13.60;99.90
60909;DHT22;46780;48.128;-1.704;2022-12-20T03:58:20;13.60;99.90
60909;DHT22;46780;48.128;-1.704;2022-12-20T04:00:46;13.50;99.90
60909;DHT22;46780;48.128;-1.704;2022-12-20T04:03:13;13.60;99.90
60909;DHT22;46780;48.128;-1.704;2022-12-20T04:05:39;13.50;99.90
60909;DHT22;46780;48.128;-1.704;2022-12-20T04:08:06;13.50;99.90
60909;DHT22;46780;48.128;-1.704;2022-12-20T04:10:34;13.50;99.90
60909;DHT22;46780;48.128;-1.704;2022-12-20T04:13:00;13.50;99.90
60909;DHT22;46780;48.128;-1.704;2022-12-20T04:15:27;13.50;99.90
60909;DHT22;46780;48.128;-1.704;2022-12-20T04:17:53;13.50;99.90
60909;DHT22;46780;48.128;-1.704;2022-12-20T04:20:20;13.50;99.90
60909;DHT22;46780;48.128;-1.704;2022-12-20T04:22:47;13.40;99.90
60909;DHT22;46780;48.128;-1.704;2022-12-20T04:25:14;13.40;99.90
60909;DHT22;46780;48.128;-1.704;2022-12-20T04:27:43;13.40;99.90
60909;DHT22;46780;48.128;-1.704;2022-12-20T04:30:11;13.40;99.90
60909;DHT22;46780;48.128;-1.704;2022-12-20T04:32:38;13.40;99.90
60909;DHT22;46780;48.128;-1.704;2022-12-20T04:35:05;13.40;99.90
60909;DHT22;46780;48.128;-1.704;2022-12-20T04:37:32;13.30;99.90
60909;DHT22;46780;48.128;-1.704;2022-12-20T04:39:58;13.30;99.90
60909;DHT22;46780;48.128;-1.704;2022-12-20T04:42:25;13.40;99.90
60909;DHT22;46780;48.128;-1.704;2022-12-20T04:44:52;13.30;99.90
60909;DHT22;46780;48.128;-1.704;2022-12-20T04:47:19;13.30;99.90
60909;DHT22;46780;48.128;-1.704;2022-12-20T04:49:45;13.40;99.90
60909;DHT22;46780;48.128;-1.704;2022-12-20T04:52:12;13.40;99.90
60909;DHT22;46780;48.128;-1.704;2022-12-20T04:54:38;13.30;99.90
60909;DHT22;46780;48.128;-1.704;2022-12-20T04:57:05;13.30;99.90
60909;DHT22;46780;48.128;-1.704;2022-12-20T04:59:31;13.30;99.90
60909;DHT22;46780;48.128;-1.704;2022-12-20T05:02:00;13.20;99.90
60909;DHT22;46780;48.128;-1.704;2022-12-20T05:04:26;13.20;99.90
60909;DHT22;46780;48.128;-1.704;2022-12-20T05:06:53;13.30;99.90
60909;DHT22;46780;48.128;-1.704;2022-12-20T05:09:19;13.20;99.90
60909;DHT22;46780;48.128;-1.704;2022-12-20T05:11:46;13.30;99.90
60909;DHT22;46780;48.128;-1.704;2022-12-20T05:14:12;13.30;99.90
60909;DHT22;46780;48.128;-1.704;2022-12-20T05:16:39;13.30;99.90
60909;DHT22;46780;48.128;-1.704;2022-12-20T05:19:07;13.30;99.90
60909;DHT22;46780;48.128;-1.704;2022-12-20T05:21:33;13.30;99.90
60909;DHT22;46780;48.128;-1.704;2022-12-20T05:23:59;13.30;99.90
60909;DHT22;46780;48.128;-1.704;2022-12-20T05:26:28;13.20;99.90
60909;DHT22;46780;48.128;-1.704;2022-12-20T05:28:55;13.20;99.90
60909;DHT22;46780;48.128;-1.704;2022-12-20T05:31:21;13.20;99.90
60909;DHT22;46780;48.128;-1.704;2022-12-20T05:33:48;13.30;99.90
60909;DHT22;46780;48.128;-1.704;2022-12-20T05:36:16;13.20;99.90
60909;DHT22;46780;48.128;-1.704;2022-12-20T05:38:42;13.20;99.90
60909;DHT22;46780;48.128;-1.704;2022-12-20T05:41:09;13.20;99.90
60909;DHT22;46780;48.128;-1.704;2022-12-20T05:43:35;13.20;99.90
60909;DHT22;46780;48.128;-1.704;2022-12-20T05:46:02;13.20;99.90
60909;DHT22;46780;48.128;-1.704;2022-12-20T05:48:28;13.20;99.90
60909;DHT22;46780;48.128;-1.704;2022-12-20T05:50:55;13.20;99.90
60909;DHT22;46780;48.128;-1.704;2022-12-20T05:53:23;13.20;99.90
60909;DHT22;46780;48.128;-1.704;2022-12-20T05:55:51;13.20;99.90
60909;DHT22;46780;48.128;-1.704;2022-12-20T05:58:18;13.10;99.90
60909;DHT22;46780;48.128;-1.704;2022-12-20T06:00:44;13.20;99.90
60909;DHT22;46780;48.128;-1.704;2022-12-20T06:03:11;13.20;99.90
60909;DHT22;46780;48.128;-1.704;2022-12-20T06:05:38;13.20;99.90
60909;DHT22;46780;48.128;-1.704;2022-12-20T06:08:05;13.10;99.90
60909;DHT22;46780;48.128;-1.704;2022-12-20T06:10:34;13.10;99.90
60909;DHT22;46780;48.128;-1.704;2022-12-20T06:13:01;13.10;99.90
60909;DHT22;46780;48.128;-1.704;2022-12-20T06:15:28;13.10;99.90
60909;DHT22;46780;48.128;-1.704;2022-12-20T06:17:55;13.10;99.90
60909;DHT22;46780;48.128;-1.704;2022-12-20T06:20:22;13.10;99.90
60909;DHT22;46780;48.128;-1.704;2022-12-20T06:22:49;13.10;99.90
60909;DHT22;46780;48.128;-1.704;2022-12-20T06:25:15;13.10;99.90
60909;DHT22;46780;48.128;-1.704;2022-12-20T06:27:43;13.20;99.90
60909;DHT22;46780;48.128;-1.704;2022-12-20T06:30:10;13.20;99.90
60909;DHT22;46780;48.128;-1.704;2022-12-20T06:32:37;13.20;99.90
60909;DHT22;46780;48.128;-1.704;2022-12-20T06:35:04;13.20;99.90
60909;DHT22;46780;48.128;-1.704;2022-12-20T06:37:31;13.20;99.90
60909;DHT22;46780;48.128;-1.704;2022-12-20T06:39:57;13.20;99.90
60909;DHT22;46780;48.128;-1.704;2022-12-20T06:42:24;13.20;99.90
60909;DHT22;46780;48.128;-1.704;2022-12-20T06:44:52;13.20;99.90
60909;DHT22;46780;48.128;-1.704;2022-12-20T06:47:18;13.20;99.90
60909;DHT22;46780;48.128;-1.704;2022-12-20T06:49:45;13.20;99.90
60909;DHT22;46780;48.128;-1.704;2022-12-20T06:52:12;13.20;99.90
60909;DHT22;46780;48.128;-1.704;2022-12-20T06:54:38;13.20;99.90
60909;DHT22;46780;48.128;-1.704;2022-12-20T06:57:05;13.20;99.90
60909;DHT22;46780;48.128;-1.704;2022-12-20T06:59:31;13.30;99.90
60909;DHT22;46780;48.128;-1.704;2022-12-20T07:01:59;13.20;99.90
60909;DHT22;46780;48.128;-1.704;2022-12-20T07:04:25;13.30;99.90
60909;DHT22;46780;48.128;-1.704;2022-12-20T07:06:52;13.20;99.90
60909;DHT22;46780;48.128;-1.704;2022-12-20T07:09:19;13.20;99.90
60909;DHT22;46780;48.128;-1.704;2022-12-20T07:11:45;13.30;99.90
60909;DHT22;46780;48.128;-1.704;2022-12-20T07:14:12;13.30;99.90
60909;DHT22;46780;48.128;-1.704;2022-12-20T07:16:38;13.30;99.90
60909;DHT22;46780;48.128;-1.704;2022-12-20T07:19:08;13.30;99.90
60909;DHT22;46780;48.128;-1.704;2022-12-20T07:21:35;13.30;99.90
60909;DHT22;46780;48.128;-1.704;2022-12-20T07:24:02;13.40;99.90
60909;DHT22;46780;48.128;-1.704;2022-12-20T07:26:28;13.40;99.90
60909;DHT22;46780;48.128;-1.704;2022-12-20T07:28:55;13.30;99.90
60909;DHT22;46780;48.128;-1.704;2022-12-20T07:31:21;13.30;99.90
60909;DHT22;46780;48.128;-1.704;2022-12-20T07:33:48;13.30;99.90
60909;DHT22;46780;48.128;-1.704;2022-12-20T07:36:16;13.40;99.90
60909;DHT22;46780;48.128;-1.704;2022-12-20T07:38:42;13.40;99.90
60909;DHT22;46780;48.128;-1.704;2022-12-20T07:41:10;13.40;99.90
60909;DHT22;46780;48.128;-1.704;2022-12-20T07:43:37;13.40;99.90
60909;DHT22;46780;48.128;-1.704;2022-12-20T07:46:05;13.40;99.90
60909;DHT22;46780;48.128;-1.704;2022-12-20T07:48:32;13.30;99.90
60909;DHT22;46780;48.128;-1.704;2022-12-20T07:51:02;13.40;99.90
60909;DHT22;46780;48.128;-1.704;2022-12-20T07:53:34;13.40;99.90
60909;DHT22;46780;48.128;-1.704;2022-12-20T07:56:03;13.40;99.90
60909;DHT22;46780;48.128;-1.704;2022-12-20T07:58:32;13.40;99.90
60909;DHT22;46780;48.128;-1.704;2022-12-20T08:01:00;13.50;99.90
60909;DHT22;46780;48.128;-1.704;2022-12-20T08:03:31;13.50;99.90
60909;DHT22;46780;48.128;-1.704;2022-12-20T08:05:59;13.40;99.90
60909;DHT22;46780;48.128;-1.704;2022-12-20T08:08:28;13.40;99.90
60909;DHT22;46780;48.128;-1.704;2022-12-20T08:10:56;13.40;99.90
60909;DHT22;46780;48.128;-1.704;2022-12-20T08:13:23;13.40;99.90
60909;DHT22;46780;48.128;-1.704;2022-12-20T08:15:50;13.30;99.90
60909;DHT22;46780;48.128;-1.704;2022-12-20T08:18:16;13.30;99.90
60909;DHT22;46780;48.128;-1.704;2022-12-20T08:20:43;13.30;99.90
60909;DHT22;46780;48.128;-1.704;2022-12-20T08:23:09;13.30;99.90
60909;DHT22;46780;48.128;-1.704;2022-12-20T08:25:36;13.30;99.90
60909;DHT22;46780;48.128;-1.704;2022-12-20T08:28:04;13.30;99.90
60909;DHT22;46780;48.128;-1.704;2022-12-20T08:30:30;13.40;99.90
60909;DHT22;46780;48.128;-1.704;2022-12-20T08:32:57;13.30;99.90
60909;DHT22;46780;48.128;-1.704;2022-12-20T08:35:23;13.40;99.90
60909;DHT22;46780;48.128;-1.704;2022-12-20T08:37:50;13.30;99.90
60909;DHT22;46780;48.128;-1.704;2022-12-20T08:40:17;13.30;99.90
60909;DHT22;46780;48.128;-1.704;2022-12-20T08:42:44;13.30;99.90
60909;DHT22;46780;48.128;-1.704;2022-12-20T08:45:12;13.30;99.90
60909;DHT22;46780;48.128;-1.704;2022-12-20T08:47:38;13.30;99.90
60909;DHT22;46780;48.128;-1.704;2022-12-20T08:50:06;13.30;99.90
60909;DHT22;46780;48.128;-1.704;2022-12-20T08:52:33;13.30;99.90
60909;DHT22;46780;48.128;-1.704;2022-12-20T08:54:59;13.40;99.90
60909;DHT22;46780;48.128;-1.704;2022-12-20T08:57:26;13.30;99.90
60909;DHT22;46780;48.128;-1.704;2022-12-20T08:59:52;13.30;99.90
60909;DHT22;46780;48.128;-1.704;2022-12-20T09:02:20;13.30;99.90
60909;DHT22;46780;48.128;-1.704;2022-12-20T09:04:47;13.40;99.90
60909;DHT22;46780;48.128;-1.704;2022-12-20T09:07:13;13.40;99.90
60909;DHT22;46780;48.128;-1.704;2022-12-20T09:09:40;13.40;99.90
60909;DHT22;46780;48.128;-1.704;2022-12-20T09:12:06;13.40;99.90
60909;DHT22;46780;48.128;-1.704;2022-12-20T09:14:33;13.30;99.90
60909;DHT22;46780;48.128;-1.704;2022-12-20T09:16:59;13.30;99.90
60909;DHT22;46780;48.128;-1.704;2022-12-20T09:19:27;13.30;99.90
60909;DHT22;46780;48.128;-1.704;2022-12-20T09:21:54;13.40;99.90
60909;DHT22;46780;48.128;-1.704;2022-12-20T09:24:20;13.50;99.90
60909;DHT22;46780;48.128;-1.704;2022-12-20T09:26:47;13.40;99.90
60909;DHT22;46780;48.128;-1.704;2022-12-20T09:29:14;13.40;99.90
60909;DHT22;46780;48.128;-1.704;2022-12-20T09:31:40;13.50;99.90
60909;DHT22;46780;48.128;-1.704;2022-12-20T09:34:08;13.50;99.90
60909;DHT22;46780;48.128;-1.704;2022-12-20T09:36:36;13.50;99.90
60909;DHT22;46780;48.128;-1.704;2022-12-20T09:39:03;13.40;99.90
60909;DHT22;46780;48.128;-1.704;2022-12-20T09:41:32;13.30;99.90
60909;DHT22;46780;48.128;-1.704;2022-12-20T09:44:03;13.20;99.90
60909;DHT22;46780;48.128;-1.704;2022-12-20T09:46:30;13.20;99.90
60909;DHT22;46780;48.128;-1.704;2022-12-20T09:48:57;13.10;99.90
60909;DHT22;46780;48.128;-1.704;2022-12-20T09:52:02;13.00;99.90
60909;DHT22;46780;48.128;-1.704;2022-12-20T09:54:36;12.90;99.90
60909;DHT22;46780;48.128;-1.704;2022-12-20T09:57:11;12.80;99.90
60909;DHT22;46780;48.128;-1.704;2022-12-20T09:59:40;12.80;99.90
60909;DHT22;46780;48.128;-1.704;2022-12-20T10:02:10;12.90;99.90
60909;DHT22;46780;48.128;-1.704;2022-12-20T10:04:38;12.80;99.90
60909;DHT22;46780;48.128;-1.704;2022-12-20T10:07:25;12.70;99.90
60909;DHT22;46780;48.128;-1.704;2022-12-20T10:10:21;12.80;99.90
60909;DHT22;46780;48.128;-1.704;2022-12-20T10:13:00;12.80;99.90
60909;DHT22;46780;48.128;-1.704;2022-12-20T10:15:33;12.70;99.90
60909;DHT22;46780;48.128;-1.704;2022-12-20T10:18:17;12.70;99.90
60909;DHT22;46780;48.128;-1.704;2022-12-20T10:20:55;12.70;99.90
60909;DHT22;46780;48.128;-1.704;2022-12-20T10:23:29;12.60;99.90
60909;DHT22;46780;48.128;-1.704;2022-12-20T10:25:59;12.70;99.90
60909;DHT22;46780;48.128;-1.704;2022-12-20T10:28:27;12.70;99.90
60909;DHT22;46780;48.128;-1.704;2022-12-20T10:30:58;12.70;99.90
60909;DHT22;46780;48.128;-1.704;2022-12-20T10:33:26;12.70;99.90
60909;DHT22;46780;48.128;-1.704;2022-12-20T10:35:53;12.70;99.90
60909;DHT22;46780;48.128;-1.704;2022-12-20T10:38:20;12.80;99.90
60909;DHT22;46780;48.128;-1.704;2022-12-20T10:40:59;12.80;99.90
60909;DHT22;46780;48.128;-1.704;2022-12-20T10:43:27;12.80;99.90
60909;DHT22;46780;48.128;-1.704;2022-12-20T10:46:04;12.70;99.90
60909;DHT22;46780;48.128;-1.704;2022-12-20T10:48:33;12.80;99.90
60909;DHT22;46780;48.128;-1.704;2022-12-20T10:51:03;12.80;99.90
60909;DHT22;46780;48.128;-1.704;2022-12-20T10:53:50;12.70;99.90
60909;DHT22;46780;48.128;-1.704;2022-12-20T10:56:21;12.80;99.90
60909;DHT22;46780;48.128;-1.704;2022-12-20T10:58:53;12.80;99.90
60909;DHT22;46780;48.128;-1.704;2022-12-20T11:01:21;12.80;99.90
60909;DHT22;46780;48.128;-1.704;2022-12-20T11:03:52;12.80;99.90
60909;DHT22;46780;48.128;-1.704;2022-12-20T11:06:20;12.80;99.90
60909;DHT22;46780;48.128;-1.704;2022-12-20T11:09:20;12.90;99.90
60909;DHT22;46780;48.128;-1.704;2022-12-20T11:12:14;12.80;99.90
60909;DHT22;46780;48.128;-1.704;2022-12-20T11:14:44;12.80;99.90
60909;DHT22;46780;48.128;-1.704;2022-12-20T11:17:24;12.90;99.90
60909;DHT22;46780;48.128;-1.704;2022-12-20T11:20:07;12.90;99.90
60909;DHT22;46780;48.128;-1.704;2022-12-20T11:22:45;12.90;99.90
60909;DHT22;46780;48.128;-1.704;2022-12-20T11:25:37;12.90;99.90
60909;DHT22;46780;48.128;-1.704;2022-12-20T11:28:37;12.90;99.90
60909;DHT22;46780;48.128;-1.704;2022-12-20T11:31:15;12.90;99.90
60909;DHT22;46780;48.128;-1.704;2022-12-20T11:34:03;12.80;99.90
60909;DHT22;46780;48.128;-1.704;2022-12-20T11:36:53;12.90;99.90
60909;DHT22;46780;48.128;-1.704;2022-12-20T11:39:38;12.90;99.90
60909;DHT22;46780;48.128;-1.704;2022-12-20T11:42:14;13.00;99.90
60909;DHT22;46780;48.128;-1.704;2022-12-20T11:44:52;12.90;99.90
60909;DHT22;46780;48.128;-1.704;2022-12-20T11:47:41;13.00;99.90
60909;DHT22;46780;48.128;-1.704;2022-12-20T11:50:36;13.00;99.90
60909;DHT22;46780;48.128;-1.704;2022-12-20T11:53:10;13.00;99.90
60909;DHT22;46780;48.128;-1.704;2022-12-20T11:55:48;12.90;99.90
60909;DHT22;46780;48.128;-1.704;2022-12-20T11:58:24;12.90;99.90
60909;DHT22;46780;48.128;-1.704;2022-12-20T12:00:55;12.90;99.90
60909;DHT22;46780;48.128;-1.704;2022-12-20T12:03:27;12.90;99.90
60909;DHT22;46780;48.128;-1.704;2022-12-20T12:05:58;12.90;99.90
60909;DHT22;46780;48.128;-1.704;2022-12-20T12:08:31;12.90;99.90
60909;DHT22;46780;48.128;-1.704;2022-12-20T12:11:03;12.90;99.90
60909;DHT22;46780;48.128;-1.704;2022-12-20T12:13:35;12.90;99.90
60909;DHT22;46780;48.128;-1.704;2022-12-20T12:16:09;12.90;99.90
60909;DHT22;46780;48.128;-1.704;2022-12-20T12:18:41;13.00;99.90
60909;DHT22;46780;48.128;-1.704;2022-12-20T12:21:10;13.00;99.90
60909;DHT22;46780;48.128;-1.704;2022-12-20T12:23:46;13.10;99.90
60909;DHT22;46780;48.128;-1.704;2022-12-20T12:26:19;13.10;99.90
60909;DHT22;46780;48.128;-1.704;2022-12-20T12:28:52;13.20;99.90
60909;DHT22;46780;48.128;-1.704;2022-12-20T12:31:27;13.20;99.90
60909;DHT22;46780;48.128;-1.704;2022-12-20T12:34:09;13.20;99.90
60909;DHT22;46780;48.128;-1.704;2022-12-20T12:37:13;13.20;99.90
60909;DHT22;46780;48.128;-1.704;2022-12-20T12:40:02;13.20;99.90
60909;DHT22;46780;48.128;-1.704;2022-12-20T12:45:59;13.20;99.90
60909;DHT22;46780;48.128;-1.704;2022-12-20T12:48:33;13.20;99.90
60909;DHT22;46780;48.128;-1.704;2022-12-20T12:51:02;13.20;99.90
60909;DHT22;46780;48.128;-1.704;2022-12-20T12:53:33;13.20;99.90
60909;DHT22;46780;48.128;-1.704;2022-12-20T12:56:28;13.10;99.90
60909;DHT22;46780;48.128;-1.704;2022-12-20T12:59:22;13.10;99.90
60909;DHT22;46780;48.128;-1.704;2022-12-20T13:01:51;13.20;99.90
60909;DHT22;46780;48.128;-1.704;2022-12-20T13:04:25;13.30;99.90
60909;DHT22;46780;48.128;-1.704;2022-12-20T13:06:59;13.40;99.90
60909;DHT22;46780;48.128;-1.704;2022-12-20T13:09:40;13.50;99.90
60909;DHT22;46780;48.128;-1.704;2022-12-20T13:16:04;13.60;99.90
60909;DHT22;46780;48.128;-1.704;2022-12-20T13:18:38;13.60;99.90
60909;DHT22;46780;48.128;-1.704;2022-12-20T13:21:31;13.60;99.90
60909;DHT22;46780;48.128;-1.704;2022-12-20T13:27:15;13.50;99.90
60909;DHT22;46780;48.128;-1.704;2022-12-20T13:33:17;13.50;99.90
60909;DHT22;46780;48.128;-1.704;2022-12-20T13:36:03;13.50;99.90
60909;DHT22;46780;48.128;-1.704;2022-12-20T13:38:56;13.50;99.90
60909;DHT22;46780;48.128;-1.704;2022-12-20T13:41:34;13.30;99.90
60909;DHT22;46780;48.128;-1.704;2022-12-20T13:44:19;13.30;99.90
60909;DHT22;46780;48.128;-1.704;2022-12-20T13:46:52;13.30;99.90
60909;DHT22;46780;48.128;-1.704;2022-12-20T13:49:24;13.30;99.90
60909;DHT22;46780;48.128;-1.704;2022-12-20T13:52:11;13.20;99.90
60909;DHT22;46780;48.128;-1.704;2022-12-20T13:54:44;13.20;99.90
60909;DHT22;46780;48.128;-1.704;2022-12-20T13:57:13;13.20;99.90
60909;DHT22;46780;48.128;-1.704;2022-12-20T13:59:45;13.10;99.90
60909;DHT22;46780;48.128;-1.704;2022-12-20T14:02:19;13.10;99.90
60909;DHT22;46780;48.128;-1.704;2022-12-20T14:04:53;13.00;99.90
60909;DHT22;46780;48.128;-1.704;2022-12-20T14:07:21;13.00;99.90
60909;DHT22;46780;48.128;-1.704;2022-12-20T14:09:56;12.80;99.90
60909;DHT22;46780;48.128;-1.704;2022-12-20T14:12:23;12.80;99.90
60909;DHT22;46780;48.128;-1.704;2022-12-20T14:14:50;12.70;99.90
60909;DHT22;46780;48.128;-1.704;2022-12-20T14:17:22;12.70;99.90
60909;DHT22;46780;48.128;-1.704;2022-12-20T14:20:04;12.70;99.90
60909;DHT22;46780;48.128;-1.704;2022-12-20T14:22:32;12.70;99.90
60909;DHT22;46780;48.128;-1.704;2022-12-20T14:25:01;12.70;99.90
60909;DHT22;46780;48.128;-1.704;2022-12-20T14:27:35;12.70;99.90
60909;DHT22;46780;48.128;-1.704;2022-12-20T14:30:03;12.70;99.90
60909;DHT22;46780;48.128;-1.704;2022-12-20T14:32:30;12.80;99.90
60909;DHT22;46780;48.128;-1.704;2022-12-20T14:34:57;12.70;99.90
60909;DHT22;46780;48.128;-1.704;2022-12-20T14:38:18;12.70;99.90
60909;DHT22;46780;48.128;-1.704;2022-12-20T14:40:43;12.70;99.90
60909;DHT22;46780;48.128;-1.704;2022-12-20T14:43:13;12.70;99.90
60909;DHT22;46780;48.128;-1.704;2022-12-20T14:45:40;12.60;99.90
60909;DHT22;46780;48.128;-1.704;2022-12-20T14:48:14;12.60;99.90
60909;DHT22;46780;48.128;-1.704;2022-12-20T14:50:50;12.60;99.90
60909;DHT22;46780;48.128;-1.704;2022-12-20T14:53:20;12.70;99.90
60909;DHT22;46780;48.128;-1.704;2022-12-20T14:55:49;12.70;99.90
60909;DHT22;46780;48.128;-1.704;2022-12-20T14:58:24;12.60;99.90
60909;DHT22;46780;48.128;-1.704;2022-12-20T15:00:55;12.60;99.90
60909;DHT22;46780;48.128;-1.704;2022-12-20T15:03:22;12.50;99.90
60909;DHT22;46780;48.128;-1.704;2022-12-20T15:05:50;12.40;99.90
60909;DHT22;46780;48.128;-1.704;2022-12-20T15:08:20;12.50;99.90
60909;DHT22;46780;48.128;-1.704;2022-12-20T15:10:54;12.50;99.90
60909;DHT22;46780;48.128;-1.704;2022-12-20T15:13:26;12.60;99.90
60909;DHT22;46780;48.128;-1.704;2022-12-20T15:15:53;12.50;99.90
60909;DHT22;46780;48.128;-1.704;2022-12-20T15:18:20;12.50;99.90
60909;DHT22;46780;48.128;-1.704;2022-12-20T15:20:59;12.40;99.90
60909;DHT22;46780;48.128;-1.704;2022-12-20T15:23:26;12.50;99.90
60909;DHT22;46780;48.128;-1.704;2022-12-20T15:25:57;12.60;99.90
60909;DHT22;46780;48.128;-1.704;2022-12-20T15:28:26;12.50;99.90
60909;DHT22;46780;48.128;-1.704;2022-12-20T15:30:53;12.50;99.90
60909;DHT22;46780;48.128;-1.704;2022-12-20T15:33:22;12.50;99.90
60909;DHT22;46780;48.128;-1.704;2022-12-20T15:35:50;12.50;99.90
60909;DHT22;46780;48.128;-1.704;2022-12-20T15:38:19;12.40;99.90
60909;DHT22;46780;48.128;-1.704;2022-12-20T15:40:47;12.40;99.90
60909;DHT22;46780;48.128;-1.704;2022-12-20T15:43:19;12.40;99.90
60909;DHT22;46780;48.128;-1.704;2022-12-20T15:45:47;12.40;99.90
60909;DHT22;46780;48.128;-1.704;2022-12-20T15:48:17;12.40;99.90
60909;DHT22;46780;48.128;-1.704;2022-12-20T15:50:49;12.40;99.90
60909;DHT22;46780;48.128;-1.704;2022-12-20T15:53:19;12.40;99.90